Time;durP1;ratioP1;P1;durP2;ratioP2;P2;SDS_P1;SDS_P2;PMS_P1;PMS_P2;Temp;Humidity;BMP_temperature;BMP_pressure;BME280_temperature;BME280_humidity;BME280_pressure;Samples;Min_cycle;Max_cycle;Signal;HPM_P1;HPM_P2
2022/07/10 00:01:33;;;;;;;9.43;4.78;;;;;;;14.66;70.16;100179.48;1654185;86;25627;-69
2022/07/10 00:04:00;;;;;;;7.90;4.58;;;;;;;14.68;70.44;100173.70;1677638;84;25760;-69
2022/07/10 00:06:26;;;;;;;7.58;4.85;;;;;;;14.66;70.37;100174.58;1654627;86;27345;-69
2022/07/10 00:08:52;;;;;;;7.30;4.40;;;;;;;14.63;70.45;100177.42;1675992;85;25606;-69
2022/07/10 00:11:18;;;;;;;7.00;4.80;;;;;;;14.62;70.47;100175.04;1677588;85;25500;-69
2022/07/10 00:13:44;;;;;;;6.75;5.10;;;;;;;14.61;70.60;100176.16;1655180;86;25740;-69
2022/07/10 00:16:10;;;;;;;8.43;5.20;;;;;;;14.62;70.78;100170.95;1676175;84;25768;-69
2022/07/10 00:18:36;;;;;;;8.00;5.03;;;;;;;14.62;71.00;100179.13;1669128;85;28163;-69
2022/07/10 00:21:03;;;;;;;5.62;4.42;;;;;;;14.62;70.94;100177.77;1666449;86;25950;-68
2022/07/10 00:23:29;;;;;;;5.83;4.85;;;;;;;14.63;71.07;100176.06;1666691;85;25580;-68
2022/07/10 00:25:55;;;;;;;8.00;4.85;;;;;;;14.63;71.12;100173.34;1665794;85;25694;-68
2022/07/10 00:28:23;;;;;;;5.80;4.92;;;;;;;14.66;71.23;100174.58;1666402;85;25763;-68
2022/07/10 00:30:49;;;;;;;6.45;4.42;;;;;;;14.66;71.04;100171.31;1666396;86;28230;-68
2022/07/10 00:33:15;;;;;;;8.08;5.65;;;;;;;14.67;71.14;100164.72;1665785;85;25702;-68
2022/07/10 00:35:41;;;;;;;9.20;5.37;;;;;;;14.69;71.49;100158.39;1666513;86;25734;-68
2022/07/10 00:38:07;;;;;;;5.83;5.15;;;;;;;14.71;71.37;100161.56;1655299;86;25625;-68
2022/07/10 00:40:33;;;;;;;7.95;4.97;;;;;;;14.70;71.52;100157.23;1663835;85;25822;-68
2022/07/10 00:42:59;;;;;;;8.95;5.15;;;;;;;14.72;71.50;100162.34;1664929;85;28176;-69
2022/07/10 00:45:26;;;;;;;8.73;5.40;;;;;;;14.72;71.40;100160.98;1664872;84;25804;-68
2022/07/10 00:47:52;;;;;;;7.78;5.03;;;;;;;14.73;71.54;100161.22;1691848;84;25623;-68
2022/07/10 00:50:18;;;;;;;6.78;4.37;;;;;;;14.72;71.46;100156.33;1692160;84;25772;-67
2022/07/10 00:52:46;;;;;;;6.40;4.03;;;;;;;14.73;71.37;100154.41;1692213;84;25628;-69
2022/07/10 00:55:14;;;;;;;4.97;3.95;;;;;;;14.73;71.36;100151.70;1691914;84;27288;-69
2022/07/10 00:57:41;;;;;;;7.40;4.58;;;;;;;14.72;71.23;100140.56;1691801;84;25443;-69
2022/07/10 01:00:11;;;;;;;5.65;4.40;;;;;;;14.73;71.45;100144.89;1691854;84;25695;-70
2022/07/10 01:02:41;;;;;;;;;;;;;;;14.70;71.48;100138.18;1679357;85;25608;-69
2022/07/10 01:05:09;;;;;;;8.70;4.90;;;;;;;14.70;71.48;100139.54;1680148;85;25641;-68
2022/07/10 01:07:39;;;;;;;5.60;3.60;;;;;;;14.68;71.56;100144.54;1688294;84;27336;-68
2022/07/10 01:10:06;;;;;;;;;;;;;;;14.65;71.47;100145.21;1672753;85;25743;-69
2022/07/10 01:12:33;;;;;;;4.95;4.03;;;;;;;14.65;71.82;100136.27;1691072;83;25732;-69
2022/07/10 01:14:59;;;;;;;5.87;4.70;;;;;;;14.63;71.68;100133.09;1690330;84;25719;-69
2022/07/10 01:17:28;;;;;;;6.17;4.28;;;;;;;14.61;71.80;100132.06;1690524;84;25466;-69
2022/07/10 01:19:54;;;;;;;5.65;4.08;;;;;;;14.62;71.79;100140.44;1690914;84;27330;-69
2022/07/10 01:22:20;;;;;;;4.92;3.70;;;;;;;14.60;71.87;100127.75;1679228;84;25669;-69
2022/07/10 01:24:47;;;;;;;8.23;4.40;;;;;;;14.59;71.68;100127.50;1691954;83;25576;-69
2022/07/10 01:27:13;;;;;;;5.58;3.52;;;;;;;14.57;71.80;100133.28;1680253;85;26285;-69
2022/07/10 01:29:40;;;;;;;6.62;3.98;;;;;;;14.56;71.93;100130.90;1681331;84;25502;-69
2022/07/10 01:32:07;;;;;;;7.50;3.60;;;;;;;14.51;71.88;100123.75;1692035;84;27337;-69
2022/07/10 01:34:33;;;;;;;5.40;3.65;;;;;;;14.50;71.90;100123.50;1679949;85;25407;-69
2022/07/10 01:36:59;;;;;;;4.35;3.70;;;;;;;14.47;71.88;100124.21;1683261;84;25512;-69
2022/07/10 01:39:25;;;;;;;5.12;4.03;;;;;;;14.45;72.01;100125.67;1691951;83;25675;-69
2022/07/10 01:41:51;;;;;;;5.62;3.45;;;;;;;14.44;72.06;100118.63;1680092;84;25409;-69
2022/07/10 01:44:17;;;;;;;6.72;3.62;;;;;;;14.39;72.11;100110.92;1681544;84;27373;-69
2022/07/10 01:46:48;;;;;;;7.12;4.15;;;;;;;14.37;72.19;100111.05;1692694;84;33038;-69
2022/07/10 01:49:15;;;;;;;6.08;3.95;;;;;;;14.33;72.13;100106.83;1677891;84;25717;-69
2022/07/10 01:51:42;;;;;;;5.20;3.75;;;;;;;14.31;72.30;100106.38;1679559;84;25659;-69
2022/07/10 01:54:08;;;;;;;7.67;3.70;;;;;;;14.28;72.44;100100.82;1681234;84;25642;-69
2022/07/10 01:56:35;;;;;;;7.45;4.35;;;;;;;14.26;72.59;100108.53;1693971;84;27388;-69
2022/07/10 01:59:03;;;;;;;5.50;4.22;;;;;;;14.23;72.73;100107.84;1682399;84;25694;-69
2022/07/10 02:01:30;;;;;;;6.22;3.72;;;;;;;14.19;72.59;100110.45;1682143;84;25722;-69
2022/07/10 02:06:42;;;;;;;5.47;3.72;;;;;;;14.13;72.71;100101.72;1680502;84;25636;-68
2022/07/10 02:09:08;;;;;;;5.22;3.72;;;;;;;14.09;72.80;100100.00;1684434;84;27375;-68
2022/07/10 02:11:35;;;;;;;6.40;3.67;;;;;;;14.04;73.09;100102.36;1693909;84;25659;-68
2022/07/10 02:14:01;;;;;;;4.47;3.85;;;;;;;14.00;73.06;100101.46;1682505;84;25485;-68
2022/07/10 02:16:27;;;;;;;6.50;4.00;;;;;;;13.98;73.22;100097.72;1682359;84;25734;-68
2022/07/10 02:18:53;;;;;;;4.62;3.90;;;;;;;13.96;73.23;100096.45;1694127;84;25400;-68
2022/07/10 02:21:20;;;;;;;6.25;3.65;;;;;;;13.94;73.65;100091.92;1684652;84;28084;-69
2022/07/10 02:23:46;;;;;;;7.75;3.60;;;;;;;13.92;73.71;100090.89;1684747;84;25968;-68
2022/07/10 02:26:12;;;;;;;6.00;3.60;;;;;;;13.91;74.00;100092.58;1693939;84;25486;-68
2022/07/10 02:28:38;;;;;;;5.47;3.75;;;;;;;13.92;73.89;100090.11;1687579;84;25632;-68
2022/07/10 02:31:07;;;;;;;5.10;3.33;;;;;;;13.93;74.10;100086.27;1704558;83;25715;-68
2022/07/10 02:33:33;;;;;;;4.17;3.52;;;;;;;13.94;74.08;100091.34;1692369;83;27351;-68
2022/07/10 02:35:59;;;;;;;6.65;3.83;;;;;;;13.94;74.36;100088.63;1685397;84;25454;-68
2022/07/10 02:38:25;;;;;;;6.37;3.35;;;;;;;13.95;74.26;100091.58;1661003;84;29799;-68
2022/07/10 02:40:51;;;;;;;6.87;4.55;;;;;;;13.95;74.29;100090.23;1684482;84;25720;-68
2022/07/10 02:43:20;;;;;;;6.75;3.87;;;;;;;13.97;74.52;100083.09;1686527;84;25710;-68
2022/07/10 02:45:47;;;;;;;6.97;3.92;;;;;;;13.96;74.52;100089.11;1685563;84;28007;-68
2022/07/10 02:48:16;;;;;;;4.17;3.50;;;;;;;13.96;74.51;100085.03;1676680;84;25751;-68
2022/07/10 02:50:44;;;;;;;5.97;3.90;;;;;;;13.97;74.77;100086.59;1675292;85;25624;-68
2022/07/10 02:53:10;;;;;;;4.25;3.25;;;;;;;13.97;74.60;100077.66;1677108;84;25667;-68
2022/07/10 02:55:36;;;;;;;5.37;3.50;;;;;;;13.98;74.68;100090.13;1677375;85;25463;-68
2022/07/10 02:58:03;;;;;;;5.20;4.03;;;;;;;13.98;74.98;100089.56;1678339;85;27327;-68
2022/07/10 03:00:30;;;;;;;4.65;3.60;;;;;;;13.98;75.07;100088.77;1678488;85;25742;-68
2022/07/10 03:02:57;;;;;;;4.67;3.55;;;;;;;13.98;75.04;100090.13;1672722;85;25510;-68
2022/07/10 03:05:23;;;;;;;6.00;3.60;;;;;;;13.97;75.03;100090.67;1678165;84;25660;-68
2022/07/10 03:07:50;;;;;;;5.08;3.35;;;;;;;13.97;74.89;100092.61;1678968;85;25567;-68
2022/07/10 03:10:16;;;;;;;4.37;3.35;;;;;;;13.97;75.11;100096.69;1673213;85;27398;-68
2022/07/10 03:12:43;;;;;;;5.47;3.50;;;;;;;13.98;75.19;100094.21;1677961;85;25428;-68
2022/07/10 03:15:11;;;;;;;5.05;3.20;;;;;;;13.98;75.23;100094.21;1678973;85;25569;-68
2022/07/10 03:17:37;;;;;;;5.97;3.58;;;;;;;13.98;75.22;100090.92;1677474;85;25811;-68
2022/07/10 03:20:05;;;;;;;6.28;4.45;;;;;;;14.00;75.25;100083.78;1678109;85;25667;-68
2022/07/10 03:22:32;;;;;;;8.20;3.83;;;;;;;14.00;75.34;100085.14;1676633;85;27220;-68
2022/07/10 03:24:59;;;;;;;6.22;3.45;;;;;;;14.01;75.39;100083.45;1678849;85;25752;-68
2022/07/10 03:27:25;;;;;;;4.17;3.33;;;;;;;14.05;75.82;100086.86;1679009;85;25642;-68
2022/07/10 03:29:51;;;;;;;7.25;3.67;;;;;;;14.07;75.74;100088.67;1676812;85;25741;-68
2022/07/10 03:32:18;;;;;;;4.78;3.17;;;;;;;14.09;75.81;100087.19;1679492;85;25643;-68
2022/07/10 03:34:44;;;;;;;4.30;3.45;;;;;;;14.10;75.93;100087.43;1678063;85;28115;-68
2022/07/10 03:37:10;;;;;;;5.15;3.58;;;;;;;14.13;76.01;100087.30;1671849;85;26641;-68
2022/07/10 03:39:36;;;;;;;4.58;3.10;;;;;;;14.15;76.01;100084.49;1679195;84;25479;-68
2022/07/10 03:42:04;;;;;;;9.23;3.80;;;;;;;14.16;75.92;100085.27;1678248;85;25612;-68
2022/07/10 03:44:30;;;;;;;4.55;3.40;;;;;;;14.18;75.90;100090.63;1677259;85;25541;-67
2022/07/10 03:46:56;;;;;;;6.12;3.20;;;;;;;14.20;75.90;100091.07;1676330;85;28154;-68
2022/07/10 03:49:23;;;;;;;5.12;3.70;;;;;;;14.22;75.86;100094.00;1678143;85;25497;-68
2022/07/10 03:51:49;;;;;;;7.37;3.77;;;;;;;14.24;75.87;100091.77;1677570;84;25744;-68
2022/07/10 03:54:16;;;;;;;5.58;3.37;;;;;;;14.25;75.91;100090.61;1672649;85;27850;-68
2022/07/10 03:59:27;;;;;;;4.37;3.70;;;;;;;14.27;75.74;100085.62;1676901;85;27266;-68
2022/07/10 04:01:53;;;;;;;6.20;3.17;;;;;;;14.28;75.68;100089.94;1676974;84;25649;-68
2022/07/10 04:04:21;;;;;;;4.72;2.92;;;;;;;14.29;75.58;100088.81;1678298;84;25703;-68
2022/07/10 04:06:47;;;;;;;4.97;2.77;;;;;;;14.30;75.50;100081.69;1676044;85;25674;-68
2022/07/10 04:09:13;;;;;;;5.87;4.40;;;;;;;14.31;75.53;100079.17;1678638;85;25491;-68
2022/07/10 04:11:39;;;;;;;4.55;3.47;;;;;;;14.35;75.50;100077.92;1677124;85;27293;-68
2022/07/10 04:14:05;;;;;;;5.45;3.40;;;;;;;14.41;75.81;100079.30;1676915;85;25602;-68
2022/07/10 04:16:32;;;;;;;4.55;2.62;;;;;;;14.45;75.88;100079.41;1677111;84;25633;-68
2022/07/10 04:18:58;;;;;;;5.58;3.45;;;;;;;14.50;75.46;100085.41;1678969;84;25649;-68
2022/07/10 04:21:24;;;;;;;5.47;2.67;;;;;;;14.54;75.49;100094.50;1676002;85;25677;-68
2022/07/10 04:23:50;;;;;;;5.10;2.90;;;;;;;14.60;75.52;100091.58;1678617;85;27174;-68
2022/07/10 04:26:16;;;;;;;6.25;2.85;;;;;;;14.68;75.39;100099.62;1673211;85;25715;-68
2022/07/10 04:28:42;;;;;;;3.98;2.80;;;;;;;14.74;75.16;100096.09;1678341;84;25753;-68
2022/07/10 04:31:08;;;;;;;4.92;2.72;;;;;;;14.81;75.07;100096.30;1678266;85;25698;-68
2022/07/10 04:33:34;;;;;;;5.10;2.50;;;;;;;14.90;74.60;100090.77;1677127;84;25794;-68
2022/07/10 04:36:00;;;;;;;4.62;3.02;;;;;;;14.98;74.71;100097.98;1679875;84;27383;-69
2022/07/10 04:38:26;;;;;;;4.85;3.17;;;;;;;15.08;74.58;100087.20;1676517;85;27318;-68
2022/07/10 04:40:52;;;;;;;6.40;3.17;;;;;;;15.16;74.38;100076.73;1676677;84;25767;-68
2022/07/10 04:43:18;;;;;;;5.37;3.50;;;;;;;15.25;74.17;100073.29;1676135;84;26307;-68
2022/07/10 04:45:45;;;;;;;7.25;2.80;;;;;;;15.32;73.62;100078.16;1675171;85;25488;-68
2022/07/10 04:48:11;;;;;;;6.10;2.92;;;;;;;15.36;72.87;100073.61;1682008;84;27370;-68
2022/07/10 04:50:38;;;;;;;6.50;2.83;;;;;;;15.44;72.99;100076.77;1688982;84;25667;-69
2022/07/10 04:53:04;;;;;;;10.70;2.35;;;;;;;15.55;72.77;100072.96;1690204;84;25441;-69
2022/07/10 04:55:30;;;;;;;4.28;2.35;;;;;;;15.64;72.22;100072.22;1696775;84;25634;-69
2022/07/10 04:57:56;;;;;;;4.03;2.60;;;;;;;15.73;72.13;100076.16;1689438;84;25492;-69
2022/07/10 05:00:23;;;;;;;7.80;2.45;;;;;;;15.82;71.52;100071.37;1690146;84;27344;-69
2022/07/10 05:02:49;;;;;;;4.47;2.20;;;;;;;15.90;71.26;100071.56;1688047;84;25418;-68
2022/07/10 05:05:16;;;;;;;4.80;2.60;;;;;;;15.96;71.13;100070.95;1691323;84;25501;-68
2022/07/10 05:07:42;;;;;;;5.55;2.70;;;;;;;16.05;70.47;100071.56;1689477;84;25539;-68
2022/07/10 05:10:09;;;;;;;2.87;2.33;;;;;;;16.15;70.78;100071.62;1689438;84;25674;-68
2022/07/10 05:12:35;;;;;;;3.95;2.70;;;;;;;16.24;70.73;100075.53;1674420;84;27342;-68
2022/07/10 05:15:03;;;;;;;4.55;2.75;;;;;;;16.35;70.74;100075.81;1681751;84;25691;-69
2022/07/10 05:17:30;;;;;;;4.67;2.60;;;;;;;16.46;70.33;100070.59;1646419;85;25628;-69
2022/07/10 05:19:56;;;;;;;5.05;1.67;;;;;;;16.53;69.27;100066.11;1675531;84;25754;-69
2022/07/10 05:22:24;;;;;;;5.37;1.85;;;;;;;16.55;68.55;100067.91;1691165;84;25399;-69
2022/07/10 05:24:50;;;;;;;3.10;1.90;;;;;;;16.63;68.18;100060.66;1674667;84;27329;-69
2022/07/10 05:27:19;;;;;;;4.12;1.90;;;;;;;16.72;68.36;100057.73;1679210;84;27364;-69
2022/07/10 05:29:47;;;;;;;4.00;1.80;;;;;;;16.82;68.34;100064.00;1678153;84;25780;-69
2022/07/10 05:32:13;;;;;;;2.35;1.85;;;;;;;16.95;68.22;100060.03;1676688;85;26222;-69
2022/07/10 05:34:39;;;;;;;7.95;1.60;;;;;;;17.09;67.60;100061.48;1676527;85;25764;-69
2022/07/10 05:37:06;;;;;;;3.72;1.60;;;;;;;17.18;67.11;100053.89;1676497;85;27376;-69
2022/07/10 05:39:33;;;;;;;5.78;1.80;;;;;;;17.27;66.69;100055.81;1676605;85;25773;-68
2022/07/10 05:41:59;;;;;;;4.60;1.52;;;;;;;17.42;66.47;100054.16;1676528;85;25771;-68
2022/07/10 05:44:25;;;;;;;3.50;1.57;;;;;;;17.54;66.25;100051.84;1679805;84;25789;-69
2022/07/10 05:46:51;;;;;;;3.52;1.65;;;;;;;17.68;66.01;100056.79;1676679;83;25425;-68
2022/07/10 05:49:17;;;;;;;4.40;2.08;;;;;;;17.86;65.67;100046.16;1691326;84;28180;-69
2022/07/10 05:51:44;;;;;;;5.55;1.52;;;;;;;18.04;65.64;100045.91;1690433;84;25497;-68
2022/07/10 05:54:10;;;;;;;3.77;1.42;;;;;;;18.22;65.15;100042.70;1690295;84;25604;-68
2022/07/10 05:56:36;;;;;;;4.17;1.42;;;;;;;18.36;64.44;100046.23;1678690;84;25752;-69
2022/07/10 05:59:02;;;;;;;7.62;1.40;;;;;;;18.50;63.99;100042.92;1680430;84;25286;-68
2022/07/10 06:01:28;;;;;;;2.58;1.25;;;;;;;18.63;63.46;100049.77;1680586;84;27401;-69
2022/07/10 06:03:54;;;;;;;7.37;1.77;;;;;;;18.81;63.53;100046.70;1691857;84;25723;-69
2022/07/10 06:06:20;;;;;;;3.70;1.17;;;;;;;19.01;63.13;100046.00;1680506;85;25680;-70
2022/07/10 06:08:47;;;;;;;4.25;1.20;;;;;;;19.18;61.94;100043.86;1684464;83;25649;-70
2022/07/10 06:11:13;;;;;;;3.47;1.32;;;;;;;19.20;61.09;100038.20;1684575;84;25429;-70
2022/07/10 06:13:40;;;;;;;6.60;2.12;;;;;;;19.27;60.70;100040.83;1669867;84;28816;-70
2022/07/10 06:16:07;;;;;;;6.75;1.50;;;;;;;19.40;60.79;100033.34;1676662;84;25823;-70
2022/07/10 06:18:34;;;;;;;4.20;1.70;;;;;;;19.53;60.43;100041.30;1681729;85;25500;-70
2022/07/10 06:21:00;;;;;;;2.67;1.30;;;;;;;19.66;59.76;100037.72;1692100;84;26301;-70
2022/07/10 06:23:27;;;;;;;2.45;1.75;;;;;;;19.73;59.27;100040.52;1681179;85;25497;-69
2022/07/10 06:25:53;;;;;;;3.33;1.45;;;;;;;19.86;59.13;100039.71;1680260;84;27397;-69
2022/07/10 06:28:20;;;;;;;4.28;1.40;;;;;;;19.90;57.30;100040.52;1683100;84;25753;-69
2022/07/10 06:30:47;;;;;;;2.80;1.55;;;;;;;19.81;56.92;100044.17;1691932;83;25647;-69
2022/07/10 06:33:13;;;;;;;3.80;1.30;;;;;;;19.74;57.04;100036.63;1675748;84;26319;-69
2022/07/10 06:35:39;;;;;;;4.40;1.52;;;;;;;19.71;57.08;100040.12;1678139;84;25659;-69
2022/07/10 06:38:05;;;;;;;3.83;1.30;;;;;;;19.68;57.12;100032.08;1677862;85;27115;-69
2022/07/10 06:40:35;;;;;;;4.62;1.65;;;;;;;19.61;56.71;100036.09;1691823;84;25635;-69
2022/07/10 06:43:03;;;;;;;4.60;1.45;;;;;;;19.51;56.56;100034.84;1680659;85;25629;-69
2022/07/10 06:45:30;;;;;;;6.62;2.00;;;;;;;19.45;56.22;100030.84;1680120;85;25622;-70
2022/07/10 06:47:57;;;;;;;6.30;1.62;;;;;;;19.26;56.13;100025.52;1684611;84;25451;-70
2022/07/10 06:50:30;;;;;;;3.92;1.50;;;;;;;19.18;55.32;100035.63;1679981;84;27328;-69
2022/07/10 06:52:58;;;;;;;4.72;1.95;;;;;;;19.02;54.77;100034.47;1670024;85;25760;-69
2022/07/10 06:55:26;;;;;;;5.00;1.60;;;;;;;18.93;55.36;100035.31;1681587;84;25464;-69
2022/07/10 06:57:54;;;;;;;2.47;1.50;;;;;;;18.87;55.22;100037.60;1690040;84;25617;-70
2022/07/10 07:00:21;;;;;;;4.37;1.50;;;;;;;18.83;55.24;100038.12;1674536;84;25646;-70
2022/07/10 07:02:48;;;;;;;7.37;1.50;;;;;;;18.79;55.31;100041.38;1679426;84;27336;-70
2022/07/10 07:05:14;;;;;;;5.35;1.77;;;;;;;18.72;55.38;100033.06;1674278;85;25290;-70
2022/07/10 07:07:40;;;;;;;3.42;1.60;;;;;;;18.69;55.41;100041.42;1679852;84;26004;-69
2022/07/10 07:10:09;;;;;;;4.92;1.72;;;;;;;18.69;55.58;100033.80;1690684;84;25710;-69
2022/07/10 07:12:36;;;;;;;;;;;;;;;18.66;55.65;100038.86;1676887;85;25492;-71
2022/07/10 07:15:03;;;;;;;7.00;1.70;;;;;;;18.69;55.95;100037.91;1681150;84;27518;-70
2022/07/10 07:17:46;;;;;;;7.53;2.75;;;;;;;18.76;55.77;100037.44;1674519;84;25620;-69
2022/07/10 07:25:34;;;;;;;5.85;1.70;;;;;;;18.97;55.88;100035.58;1679667;84;25845;-70
2022/07/10 07:28:01;;;;;;;3.52;1.80;;;;;;;19.17;55.84;100036.78;1676269;85;27349;-70
2022/07/10 07:30:27;;;;;;;4.30;2.02;;;;;;;19.33;56.06;100030.52;1676539;85;25695;-69
2022/07/10 07:32:53;;;;;;;5.67;1.75;;;;;;;19.46;55.49;100022.03;1678976;84;25512;-70
2022/07/10 07:35:19;;;;;;;4.40;2.25;;;;;;;19.53;55.28;100026.20;1676472;85;25698;-70
2022/07/10 07:37:49;;;;;;;5.15;2.33;;;;;;;19.56;55.03;100028.20;1679642;84;25736;-70
2022/07/10 07:40:19;;;;;;;3.85;2.00;;;;;;;19.73;55.01;100030.36;1676649;85;27395;-70
2022/07/10 07:42:46;;;;;;;3.27;1.92;;;;;;;19.91;55.23;100029.16;1679429;84;25739;-70
2022/07/10 07:45:12;;;;;;;3.47;1.75;;;;;;;20.36;54.57;100026.96;1676539;85;25719;-70
2022/07/10 07:47:54;;;;;;;2.83;1.80;;;;;;;20.79;55.19;100035.48;1676126;85;25697;-70
2022/07/10 07:50:25;;;;;;;5.37;1.92;;;;;;;21.29;52.90;100024.70;1676405;84;25678;-70
2022/07/10 07:52:52;;;;;;;4.60;2.33;;;;;;;21.45;52.55;100020.22;1676217;85;27312;-70
2022/07/10 07:55:20;;;;;;;5.92;2.00;;;;;;;21.52;52.05;100028.55;1677742;84;25777;-70
2022/07/10 07:57:47;;;;;;;3.10;1.95;;;;;;;21.78;51.97;100027.98;1674364;84;25820;-70
2022/07/10 08:00:18;;;;;;;6.15;2.00;;;;;;;21.77;50.21;100018.92;1678078;84;25618;-68
2022/07/10 08:02:44;;;;;;;4.67;2.55;;;;;;;21.91;50.03;100014.02;1678452;83;25437;-67
2022/07/10 08:05:11;;;;;;;3.45;1.98;;;;;;;22.33;51.56;100018.56;1677309;85;27378;-67
2022/07/10 08:07:44;;;;;;;6.83;2.20;;;;;;;22.83;51.03;100025.34;1677614;85;25561;-67
2022/07/10 08:10:17;;;;;;;3.52;2.17;;;;;;;22.79;48.29;100023.18;1648955;87;25456;-67
2022/07/10 08:12:46;;;;;;;3.87;2.35;;;;;;;22.63;48.22;100026.39;1677838;85;25617;-67
2022/07/10 08:15:15;;;;;;;4.15;1.77;;;;;;;22.54;48.36;100018.53;1672128;85;25692;-67
2022/07/10 08:17:41;;;;;;;5.65;2.27;;;;;;;22.58;48.86;100029.55;1677613;85;27402;-68
2022/07/10 08:20:11;;;;;;;4.12;2.40;;;;;;;22.69;48.72;100028.91;1680042;84;25769;-67
2022/07/10 08:22:39;;;;;;;6.40;2.20;;;;;;;22.77;48.08;100020.64;1680507;84;25722;-71
2022/07/10 08:25:06;;;;;;;5.85;2.30;;;;;;;22.71;47.37;100027.14;1675063;85;25723;-71
2022/07/10 08:27:32;;;;;;;3.90;2.08;;;;;;;22.65;47.21;100025.39;1667550;86;25677;-71
2022/07/10 08:29:58;;;;;;;3.90;2.33;;;;;;;22.52;46.92;100023.63;1675332;83;28131;-70
2022/07/10 08:32:26;;;;;;;5.45;2.62;;;;;;;22.57;46.51;100026.58;1667257;86;25880;-71
2022/07/10 08:34:54;;;;;;;;;;;;;;;22.58;46.81;100026.80;1677796;85;25708;-70
2022/07/10 08:37:21;;;;;;;2.62;2.17;;;;;;;22.61;46.58;100024.63;1667519;86;25795;-72
2022/07/10 08:39:47;;;;;;;5.22;2.55;;;;;;;22.62;46.46;100026.18;1675193;85;25261;-71
2022/07/10 08:42:16;;;;;;;6.87;2.47;;;;;;;22.59;46.65;100026.19;1667552;86;27358;-71
2022/07/10 08:44:42;;;;;;;7.47;2.55;;;;;;;22.53;46.28;100027.20;1675204;83;25394;-69
2022/07/10 08:47:11;;;;;;;5.92;2.45;;;;;;;22.40;45.92;100014.41;1667293;86;25592;-69
2022/07/10 08:49:38;;;;;;;5.80;2.30;;;;;;;22.23;46.42;100017.95;1670475;83;25654;-69
2022/07/10 08:52:12;;;;;;;3.37;2.25;;;;;;;22.12;46.40;100022.11;1657593;86;25681;-69
2022/07/10 08:54:38;;;;;;;5.37;1.92;;;;;;;22.01;46.59;100022.09;1666411;86;28056;-72
2022/07/10 08:57:05;;;;;;;5.20;2.67;;;;;;;21.87;46.19;100020.13;1666496;86;25680;-70
2022/07/10 08:59:32;;;;;;;4.42;2.33;;;;;;;21.80;46.16;100029.76;1666505;86;25716;-70
2022/07/10 09:01:59;;;;;;;3.35;1.85;;;;;;;21.95;46.98;100024.45;1666475;86;25464;-70
2022/07/10 09:04:27;;;;;;;5.05;1.85;;;;;;;22.07;46.92;100031.54;1666544;86;25556;-71
2022/07/10 09:06:54;;;;;;;3.72;2.10;;;;;;;22.24;46.64;100027.20;1666682;86;27379;-71
2022/07/10 09:09:23;;;;;;;5.58;1.82;;;;;;;22.22;46.61;100018.55;1666600;86;25944;-70
2022/07/10 09:11:58;;;;;;;4.20;1.80;;;;;;;22.17;46.47;100024.46;1666768;86;25636;-70
2022/07/10 09:14:28;;;;;;;6.03;2.17;;;;;;;22.03;46.54;100027.98;1666649;86;26146;-70
2022/07/10 09:16:54;;;;;;;5.42;1.90;;;;;;;21.94;46.63;100027.59;1666524;86;25584;-71
2022/07/10 09:19:26;;;;;;;8.35;1.55;;;;;;;22.29;48.17;100025.45;1666134;86;27394;-70
2022/07/10 09:22:08;;;;;;;3.80;1.75;;;;;;;22.74;47.21;100031.26;1666454;86;25680;-71
2022/07/10 09:24:42;;;;;;;2.40;1.72;;;;;;;23.19;47.08;100018.91;1685949;85;25634;-70
2022/07/10 09:27:11;;;;;;;5.55;1.80;;;;;;;23.84;46.24;100009.67;1686023;85;25732;-72
2022/07/10 09:29:57;;;;;;;3.50;1.30;;;;;;;24.01;45.40;100017.02;1686419;85;25588;-72
2022/07/10 09:32:24;;;;;;;2.92;1.50;;;;;;;23.85;43.40;100013.41;1640234;85;27414;-71
2022/07/10 09:36:04;;;;;;;3.00;1.45;;;;;;;23.69;44.13;100008.95;1644815;86;26076;-70
2022/07/10 09:37:30;;;;;;;4.37;1.75;;;;;;;23.93;44.54;99998.16;1650380;86;25757;-69
2022/07/10 09:40:03;;;;;;;3.35;1.25;;;;;;;24.47;45.55;100002.58;1649820;86;26319;-68
2022/07/10 09:42:33;;;;;;;5.17;1.37;;;;;;;25.20;44.46;99998.38;1609652;87;25412;-72
2022/07/10 09:45:18;;;;;;;6.10;2.47;;;;;;;25.44;41.65;99993.13;1631988;86;27948;-69
2022/07/10 09:47:56;;;;;;;4.90;1.70;;;;;;;25.45;41.63;99995.28;1659302;86;25672;-70
2022/07/10 09:50:30;;;;;;;4.60;1.40;;;;;;;25.81;41.96;99981.68;1687003;84;25735;-69
2022/07/10 09:53:00;;;;;;;4.45;1.35;;;;;;;26.28;41.65;99979.50;1649306;86;25728;-70
2022/07/10 09:55:31;;;;;;;3.22;1.50;;;;;;;26.46;40.94;99983.34;1673345;85;25612;-71
2022/07/10 09:58:04;;;;;;;2.98;1.75;;;;;;;26.61;39.91;99983.82;1641600;86;27086;-69
2022/07/10 10:00:36;;;;;;;3.65;1.60;;;;;;;26.35;39.48;99987.68;1673097;85;25685;-69
2022/07/10 10:03:08;;;;;;;3.05;1.25;;;;;;;25.82;38.85;99982.45;1679934;84;25838;-69
2022/07/10 10:05:55;;;;;;;2.25;1.20;;;;;;;25.28;38.77;99985.42;1693204;84;25820;-70
2022/07/10 10:08:44;;;;;;;2.10;1.00;;;;;;;24.83;38.83;99995.90;1694234;84;25720;-69
2022/07/10 10:11:15;;;;;;;3.85;1.20;;;;;;;24.28;38.72;99978.29;1640861;86;27458;-70
2022/07/10 10:13:43;;;;;;;5.03;1.22;;;;;;;23.97;39.33;99985.90;1640913;87;25571;-70
2022/07/10 10:16:11;;;;;;;2.27;1.10;;;;;;;24.09;40.17;99984.58;1640777;87;25689;-69
2022/07/10 10:20:36;;;;;;;4.12;1.00;;;;;;;24.43;39.95;99981.89;1640728;87;25807;-69
2022/07/10 10:21:06;;;;;;;2.52;0.95;;;;;;;24.40;38.99;99982.70;1637862;87;25533;-69
2022/07/10 10:23:34;;;;;;;5.92;1.15;;;;;;;24.24;38.93;99986.62;1640911;87;27327;-69
2022/07/10 10:26:01;;;;;;;2.17;1.05;;;;;;;24.06;39.08;99989.56;1640653;87;25815;-69
2022/07/10 10:28:28;;;;;;;3.00;1.27;;;;;;;23.81;39.66;99986.41;1640882;87;25714;-68
2022/07/10 10:31:01;;;;;;;6.42;1.15;;;;;;;23.59;40.05;99998.78;1640572;87;25712;-68
2022/07/10 10:33:39;;;;;;;3.90;1.20;;;;;;;23.28;40.28;100003.49;1641007;87;25706;-70
2022/07/10 10:36:07;;;;;;;7.20;3.80;;;;;;;22.99;40.76;100000.67;1640909;87;27332;-69
2022/07/10 10:39:02;;;;;;;4.03;2.25;;;;;;;22.81;41.78;100000.13;1640689;87;25632;-70
2022/07/10 10:41:51;;;;;;;3.60;1.42;;;;;;;22.78;41.99;99996.00;1640929;87;25842;-69
2022/07/10 10:44:21;;;;;;;;;;;;;;;23.03;42.68;99985.66;1643235;87;26344;-70
2022/07/10 10:47:01;;;;;;;4.28;1.10;;;;;;;23.64;43.05;99978.42;1594974;88;25381;-71
2022/07/10 10:49:26;;;;;;;7.20;1.47;;;;;;;24.33;42.42;99976.45;1639562;85;28021;-72
2022/07/10 10:52:11;;;;;;;4.62;1.10;;;;;;;24.93;41.65;99975.63;1665806;86;25670;-72
2022/07/10 10:55:04;;;;;;;1.72;0.85;;;;;;;25.41;39.82;99986.26;1671590;85;25712;-75
2022/07/10 10:57:44;;;;;;;2.80;0.90;;;;;;;25.94;38.89;99978.30;1670729;85;25704;-73
2022/07/10 11:00:08;;;;;;;3.25;0.80;;;;;;;26.50;39.39;99971.56;1669754;85;25730;-72
2022/07/10 11:02:41;;;;;;;6.58;1.85;;;;;;;27.01;38.20;99978.28;1648357;85;27998;-73
2022/07/10 11:05:19;;;;;;;5.20;1.20;;;;;;;27.37;36.69;99968.57;1672570;84;25480;-72
2022/07/10 11:07:59;;;;;;;2.72;1.25;;;;;;;27.67;36.14;99964.50;1673742;84;25515;-71
2022/07/10 11:10:36;;;;;;;3.50;1.25;;;;;;;27.67;35.78;99966.69;1627919;85;25730;-72
2022/07/10 11:13:08;;;;;;;3.67;1.00;;;;;;;27.46;34.72;99972.13;1639864;87;25757;-70
2022/07/10 11:15:47;;;;;;;2.30;0.80;;;;;;;27.31;35.07;99970.90;1667475;85;28345;-73
2022/07/10 11:18:28;;;;;;;4.72;0.70;;;;;;;27.53;35.03;99969.80;1680623;84;25664;-75
2022/07/10 11:20:55;;;;;;;1.62;0.70;;;;;;;27.74;34.67;99969.90;1680356;84;25819;-71
2022/07/10 11:23:45;;;;;;;1.92;0.78;;;;;;;27.87;33.86;99972.16;1673335;85;25963;-73
2022/07/10 11:26:20;;;;;;;1.50;0.60;;;;;;;28.10;34.48;99969.78;1680499;84;25771;-71
2022/07/10 11:29:06;;;;;;;3.87;1.85;;;;;;;28.60;33.20;99962.72;1681608;84;27995;-72
2022/07/10 11:31:38;;;;;;;5.35;3.47;;;;;;;28.37;32.73;99965.13;1690499;84;25801;-71
2022/07/10 11:34:02;;;;;;;1.72;0.80;;;;;;;28.08;33.26;99964.51;1674196;84;25636;-71
2022/07/10 11:36:31;;;;;;;3.30;1.00;;;;;;;27.81;33.43;99963.38;1674196;85;26216;-70
2022/07/10 11:39:04;;;;;;;3.08;0.88;;;;;;;27.59;33.93;99966.69;1687013;84;25596;-69
2022/07/10 11:41:30;;;;;;;2.08;0.98;;;;;;;27.76;34.22;99968.85;1676954;84;27314;-70
2022/07/10 11:44:01;;;;;;;2.55;1.47;;;;;;;27.88;34.17;99976.48;1680212;84;25939;-69